This is the latest recevied weather packets stored in our database for station/object W9PEM-13. If no packets are shown the sender has not sent any weather packets the latest 10 day(s).
| Time | Temp. | Humidity | Pressure | Rain* | Wind** | Luminosity | Snow |
|---|---|---|---|---|---|---|---|
| 1777562415 | 8.33° C | 59% | 986 hPa | 0 mm | - | 286 W/m² | - |
| 1777561815 | 8.89° C | 61% | 986.2 hPa | 0 mm | - | 717 W/m² | - |
| 1777561216 | 8.33° C | 60% | 986.3 hPa | 0 mm | - | 690 W/m² | - |
| 1777560615 | 7.78° C | 63% | 986.3 hPa | 0 mm | - | 659 W/m² | - |
| 1777558815 | 7.22° C | 67% | 986.5 hPa | 0 mm | - | 446 W/m² | - |
| 1777558215 | 7.22° C | 69% | 986.5 hPa | 0 mm | - | 347 W/m² | - |
| 1777557016 | 6.67° C | 75% | 986.5 hPa | 0 mm | - | 501 W/m² | - |
| 1777556416 | 6.67° C | 75% | 986.4 hPa | 0 mm | - | 453 W/m² | - |
| 1777555815 | 6.67° C | 75% | 986.4 hPa | 0 mm | - | 441 W/m² | - |
| 1777555215 | 6.11° C | 78% | 986.4 hPa | 0 mm | - | 226 W/m² | - |
| 1777554616 | 6.11° C | 80% | 986.4 hPa | 0 mm | - | 358 W/m² | - |
| 1777554015 | 5.56° C | 83% | 986.4 hPa | 0 mm | - | 324 W/m² | - |
| 1777553416 | 5° C | 87% | 986.4 hPa | 0 mm | - | 290 W/m² | - |
| 1777552815 | 5° C | 90% | 986.4 hPa | 0 mm | - | 257 W/m² | - |
| 1777552215 | 4.44° C | 90% | 986.2 hPa | 0 mm | - | 226 W/m² | - |
| 1777551615 | 3.89° C | 95% | 986.3 hPa | 0 mm | - | 200 W/m² | - |
| 1777551015 | 3.33° C | 97% | 986.2 hPa | 0 mm | - | 172 W/m² | - |
| 1777550415 | 2.22° C | 99% | 986.1 hPa | 0 mm | - | 144 W/m² | - |
| 1777549816 | 1.67° C | 99% | 986.1 hPa | 0 mm | - | 104 W/m² | - |
| 1777549215 | 1.11° C | 99% | 986 hPa | 0 mm | - | 53 W/m² | - |
| 1777548615 | 0.56° C | 99% | 986 hPa | 0 mm | - | 41 W/m² | - |
| 1777548016 | 0.56° C | 99% | 986 hPa | 0 mm | - | 31 W/m² | - |
| 1777547414 | 0.56° C | 99% | 985.9 hPa | 0 mm | - | 20 W/m² | - |
| 1777546814 | 0° C | 99% | 985.8 hPa | 0 mm | - | 12 W/m² | - |
| 1777546215 | 0° C | 99% | 985.8 hPa | 0 mm | - | 5 W/m² | - |
* Rain latest hour (hover to see other rain measurements)
** Current wind speed in m/s (hover to see current wind gust speed)